Time;durP1;ratioP1;P1;durP2;ratioP2;P2;SDS_P1;SDS_P2;PMS_P1;PMS_P2;Temp;Humidity;BMP_temperature;BMP_pressure;BME280_temperature;BME280_humidity;BME280_pressure;Samples;Min_cycle;Max_cycle;Signal;HPM_P1;HPM_P2
2022/12/20 00:00:31;;;;;;;15.20;7.25;;;;;;;7.30;100.00;100766.06;5203738;28;20125;-78
2022/12/20 00:03:01;;;;;;;14.52;6.80;;;;;;;7.38;100.00;100770.25;5203630;28;20031;-78
2022/12/20 00:05:35;;;;;;;12.60;6.13;;;;;;;7.32;100.00;100759.97;5200381;28;20671;-78
2022/12/20 00:08:06;;;;;;;12.68;6.68;;;;;;;7.29;100.00;100764.38;5199577;28;20044;-78
2022/12/20 00:10:38;;;;;;;12.48;6.63;;;;;;;7.30;100.00;100756.56;5198677;28;20030;-78
2022/12/20 00:13:11;;;;;;;14.15;6.68;;;;;;;7.40;100.00;100750.31;5214632;28;20047;-78
2022/12/20 00:15:41;;;;;;;14.85;6.68;;;;;;;7.29;100.00;100748.78;5203348;28;20033;-78
2022/12/20 00:18:11;;;;;;;12.40;6.50;;;;;;;7.24;100.00;100757.56;5196763;28;20434;-79
2022/12/20 00:20:41;;;;;;;12.23;6.30;;;;;;;7.32;100.00;100744.38;5197189;28;20044;-78
2022/12/20 00:23:12;;;;;;;10.57;6.10;;;;;;;7.21;100.00;100758.47;5198098;28;20113;-78
2022/12/20 00:25:42;;;;;;;11.05;6.18;;;;;;;7.16;100.00;100754.25;5209098;28;20028;-77
2022/12/20 00:28:12;;;;;;;11.68;6.43;;;;;;;7.16;100.00;100762.03;5205242;28;20020;-78
2022/12/20 00:30:43;;;;;;;10.48;6.43;;;;;;;7.19;100.00;100752.44;5213975;28;20393;-78
2022/12/20 00:33:13;;;;;;;10.95;6.25;;;;;;;7.36;100.00;100740.00;5209680;28;20076;-78
2022/12/20 00:35:43;;;;;;;11.65;6.53;;;;;;;7.31;100.00;100731.41;5203630;28;20041;-78
2022/12/20 00:38:13;;;;;;;12.95;6.38;;;;;;;7.38;100.00;100733.00;5202458;28;20478;-78
2022/12/20 00:40:44;;;;;;;12.60;6.53;;;;;;;7.35;100.00;100731.31;5202902;28;20470;-78
2022/12/20 00:43:14;;;;;;;14.45;6.47;;;;;;;7.28;100.00;100727.13;5191475;28;20025;-78
2022/12/20 00:45:44;;;;;;;12.18;6.40;;;;;;;7.30;100.00;100737.50;5192519;28;20037;-78
2022/12/20 00:48:14;;;;;;;13.35;6.82;;;;;;;7.36;100.00;100719.19;5192157;28;20467;-78
2022/12/20 00:50:45;;;;;;;13.45;6.40;;;;;;;7.43;100.00;100719.03;5184734;28;20099;-78
2022/12/20 00:53:15;;;;;;;12.38;6.95;;;;;;;7.44;100.00;100725.94;5195813;28;20029;-78
2022/12/20 00:55:46;;;;;;;15.25;7.13;;;;;;;7.47;100.00;100725.88;5202469;28;20044;-78
2022/12/20 00:58:16;;;;;;;14.10;6.85;;;;;;;7.59;100.00;100725.63;5197466;28;20056;-77
2022/12/20 01:00:47;;;;;;;12.85;6.97;;;;;;;7.56;100.00;100730.88;5197038;28;20025;-77
2022/12/20 01:03:17;;;;;;;14.43;6.82;;;;;;;7.42;100.00;100742.44;5204514;28;20029;-78
2022/12/20 01:05:52;;;;;;;14.35;6.85;;;;;;;7.49;100.00;100731.06;5203442;28;20711;-78
2022/12/20 01:08:23;;;;;;;13.00;6.57;;;;;;;7.44;100.00;100731.16;5199473;28;20044;-77
2022/12/20 01:11:18;;;;;;;15.13;7.07;;;;;;;7.42;100.00;100727.72;5195650;28;20033;-77
2022/12/20 01:13:51;;;;;;;12.95;6.63;;;;;;;7.50;100.00;100722.38;5192705;28;20052;-78
2022/12/20 01:16:26;;;;;;;14.13;6.93;;;;;;;7.50;100.00;100711.97;5199680;28;20029;-78
2022/12/20 01:18:57;;;;;;;14.10;7.35;;;;;;;7.43;100.00;100721.63;5195048;28;20025;-78
2022/12/20 01:21:28;;;;;;;14.82;6.88;;;;;;;7.40;100.00;100726.91;5198579;28;20041;-78
2022/12/20 01:23:58;;;;;;;11.93;6.53;;;;;;;7.39;100.00;100727.75;5201156;28;20710;-76
2022/12/20 01:26:29;;;;;;;16.08;6.88;;;;;;;7.42;100.00;100722.53;5194992;28;20037;-78
2022/12/20 01:29:02;;;;;;;13.20;6.40;;;;;;;7.50;100.00;100718.00;5207222;28;20029;-78
2022/12/20 01:31:33;;;;;;;11.50;6.03;;;;;;;7.56;100.00;100704.88;5196022;28;20125;-78
2022/12/20 01:34:04;;;;;;;11.82;6.60;;;;;;;7.68;100.00;100715.00;5207684;28;20120;-78
2022/12/20 01:36:37;;;;;;;13.98;5.95;;;;;;;7.68;100.00;100709.81;5200877;28;20041;-78
2022/12/20 01:39:11;;;;;;;10.23;5.38;;;;;;;7.48;100.00;100703.31;5205973;28;20029;-78
2022/12/20 01:41:44;;;;;;;11.82;5.80;;;;;;;7.47;100.00;100702.47;5206710;28;20045;-77
2022/12/20 01:44:17;;;;;;;9.77;5.85;;;;;;;7.53;100.00;100707.53;5200706;28;20041;-78
2022/12/20 01:46:49;;;;;;;10.20;6.20;;;;;;;7.40;100.00;100700.03;5201540;28;20033;-78
2022/12/20 01:49:42;;;;;;;10.57;6.05;;;;;;;7.49;100.00;100692.91;5198939;28;20064;-78
2022/12/20 01:52:12;;;;;;;13.80;6.53;;;;;;;7.62;100.00;100698.69;5206152;28;20026;-78
2022/12/20 01:54:52;;;;;;;11.68;6.38;;;;;;;7.64;100.00;100692.56;5205703;28;20411;-76
2022/12/20 01:57:51;;;;;;;12.18;6.47;;;;;;;7.68;100.00;100698.56;5199682;28;20112;-78
2022/12/20 02:00:21;;;;;;;11.45;6.32;;;;;;;7.74;100.00;100698.41;5204182;28;20032;-79
2022/12/20 02:02:54;;;;;;;10.98;6.03;;;;;;;7.71;100.00;100701.09;5203189;28;20030;-78
2022/12/20 02:05:24;;;;;;;9.80;5.53;;;;;;;7.72;100.00;100693.25;5206101;28;20029;-78
2022/12/20 02:07:56;;;;;;;14.30;6.38;;;;;;;7.79;100.00;100699.16;5204176;28;20025;-78
2022/12/20 02:10:59;;;;;;;11.02;5.53;;;;;;;7.76;100.00;100684.50;5211168;28;20108;-78
2022/12/20 02:13:51;;;;;;;13.23;6.00;;;;;;;7.67;100.00;100683.84;5209486;28;20527;-77
2022/12/20 02:16:28;;;;;;;11.20;5.88;;;;;;;7.67;100.00;100681.25;5197731;28;20037;-78
2022/12/20 02:19:08;;;;;;;10.82;5.68;;;;;;;7.75;100.00;100672.38;5200010;28;20033;-79
2022/12/20 02:21:46;;;;;;;12.15;5.70;;;;;;;7.83;100.00;100675.66;5208874;28;20053;-78
2022/12/20 02:24:54;;;;;;;9.25;5.55;;;;;;;7.82;100.00;100681.75;5206680;28;20021;-78
2022/12/20 02:27:24;;;;;;;12.93;5.93;;;;;;;7.75;100.00;100675.00;5221948;28;20438;-79
2022/12/20 02:30:03;;;;;;;11.00;5.40;;;;;;;7.75;100.00;100672.38;5208278;28;20063;-79
2022/12/20 02:32:43;;;;;;;11.27;5.35;;;;;;;7.73;100.00;100679.34;5218823;28;20290;-78
2022/12/20 02:35:20;;;;;;;14.35;6.35;;;;;;;7.73;100.00;100671.53;5218860;28;20021;-78
2022/12/20 02:37:57;;;;;;;12.85;5.80;;;;;;;7.66;100.00;100662.19;5200937;28;20087;-78
2022/12/20 02:40:33;;;;;;;9.98;5.32;;;;;;;7.52;100.00;100682.41;5210669;28;20079;-79
2022/12/20 02:45:14;;;;;;;12.00;6.05;;;;;;;7.47;100.00;100680.81;5216581;28;20021;-78
2022/12/20 02:46:00;;;;;;;10.25;5.43;;;;;;;7.47;100.00;100684.28;5201450;28;20107;-77
2022/12/20 02:48:33;;;;;;;12.60;6.45;;;;;;;7.39;100.00;100704.38;5209310;28;20098;-78
2022/12/20 02:51:05;;;;;;;13.18;5.95;;;;;;;7.48;100.00;100698.97;5208300;28;20017;-78
2022/12/20 02:53:37;;;;;;;11.05;5.63;;;;;;;7.50;100.00;100691.16;5208126;28;20067;-78
2022/12/20 02:56:56;;;;;;;10.60;5.82;;;;;;;7.52;100.00;100690.22;5211463;28;20029;-78
2022/12/20 02:59:46;;;;;;;12.90;5.97;;;;;;;7.66;100.00;100687.34;5209806;28;20503;-79
2022/12/20 03:02:16;;;;;;;9.88;5.78;;;;;;;7.75;100.00;100682.78;5215541;28;20154;-78
2022/12/20 03:04:48;;;;;;;10.85;5.93;;;;;;;7.83;100.00;100665.25;5213988;28;20100;-78
2022/12/20 03:07:19;;;;;;;10.90;5.88;;;;;;;8.10;100.00;100668.94;5205839;28;20033;-78
2022/12/20 03:09:49;;;;;;;13.90;6.68;;;;;;;8.02;100.00;100663.91;5200306;28;20033;-78
2022/12/20 03:12:19;;;;;;;10.40;5.43;;;;;;;8.00;100.00;100668.31;5211718;28;20428;-78
2022/12/20 03:14:49;;;;;;;9.50;5.70;;;;;;;7.88;100.00;100660.78;5211784;28;20104;-76
2022/12/20 03:17:20;;;;;;;10.10;5.60;;;;;;;7.96;100.00;100663.22;5198673;28;20036;-78
2022/12/20 03:19:50;;;;;;;10.23;5.75;;;;;;;8.05;100.00;100663.00;5207856;28;20529;-79
2022/12/20 03:22:22;;;;;;;12.02;5.72;;;;;;;8.19;100.00;100659.19;5206855;28;20475;-78
2022/12/20 03:24:52;;;;;;;12.70;5.72;;;;;;;8.36;100.00;100648.38;5207422;28;20080;-78
2022/12/20 03:27:22;;;;;;;10.52;6.00;;;;;;;8.30;100.00;100662.41;5210386;28;20056;-78
2022/12/20 03:29:53;;;;;;;11.63;5.35;;;;;;;8.45;100.00;100649.00;5204758;28;20025;-78
2022/12/20 03:32:23;;;;;;;11.35;5.78;;;;;;;8.33;100.00;100651.03;5207832;28;20037;-78
2022/12/20 03:34:54;;;;;;;8.35;5.10;;;;;;;8.33;100.00;100636.28;5212066;28;20052;-78
2022/12/20 03:37:24;;;;;;;11.77;4.93;;;;;;;8.45;100.00;100642.91;5206350;28;20101;-77
2022/12/20 03:39:54;;;;;;;10.80;5.28;;;;;;;8.19;100.00;100654.00;5204046;28;20053;-79
2022/12/20 03:42:25;;;;;;;11.02;5.13;;;;;;;8.25;100.00;100653.00;5211129;28;20025;-77
2022/12/20 03:44:55;;;;;;;9.95;4.97;;;;;;;8.11;100.00;100642.03;5213482;28;20034;-78
2022/12/20 03:47:25;;;;;;;9.07;5.15;;;;;;;7.92;100.00;100644.25;5207002;28;20116;-79
2022/12/20 03:49:56;;;;;;;10.48;5.22;;;;;;;7.97;100.00;100641.50;5210211;28;20129;-78
2022/12/20 03:52:26;;;;;;;9.93;5.10;;;;;;;7.91;100.00;100644.25;5205127;28;20022;-78
2022/12/20 03:54:56;;;;;;;10.35;4.90;;;;;;;7.85;100.00;100637.44;5211146;28;20033;-78
2022/12/20 03:57:27;;;;;;;13.43;5.10;;;;;;;7.79;100.00;100619.38;5213194;28;20671;-78
2022/12/20 03:59:57;;;;;;;8.52;4.95;;;;;;;7.76;100.00;100619.47;5218784;28;20049;-78
2022/12/20 04:02:27;;;;;;;8.50;4.88;;;;;;;7.76;100.00;100614.28;5214258;28;20036;-78
2022/12/20 04:04:58;;;;;;;8.57;4.75;;;;;;;7.90;100.00;100619.13;5209456;28;20025;-78
2022/12/20 04:07:28;;;;;;;8.65;4.68;;;;;;;7.91;100.00;100629.47;5206775;28;20040;-78
2022/12/20 04:09:58;;;;;;;12.90;5.85;;;;;;;8.00;100.00;100626.69;5210176;28;20032;-78
2022/12/20 04:12:29;;;;;;;11.45;6.18;;;;;;;8.22;100.00;100622.66;5210735;28;20045;-78
2022/12/20 04:14:59;;;;;;;8.52;4.63;;;;;;;8.10;100.00;100622.97;5206031;28;20111;-77
2022/12/20 04:17:29;;;;;;;9.35;4.97;;;;;;;8.19;100.00;100601.94;5204080;28;20124;-77
2022/12/20 04:20:17;;;;;;;11.10;6.07;;;;;;;8.15;100.00;100620.22;5211079;28;20029;-78
2022/12/20 04:22:49;;;;;;;8.90;4.82;;;;;;;8.06;100.00;100631.72;5202491;28;20052;-79
2022/12/20 04:25:20;;;;;;;7.93;4.72;;;;;;;7.97;100.00;100641.50;5206582;28;20052;-78
2022/12/20 04:27:50;;;;;;;13.02;4.75;;;;;;;8.06;100.00;100642.13;5207044;28;20064;-78
2022/12/20 04:30:20;;;;;;;12.73;5.05;;;;;;;7.99;100.00;100635.38;5218483;28;20036;-78
2022/12/20 04:32:53;;;;;;;9.02;4.63;;;;;;;8.09;100.00;100636.00;5213770;28;20029;-78
2022/12/20 04:35:23;;;;;;;9.93;4.85;;;;;;;8.09;100.00;100631.66;5210168;28;20108;-78
2022/12/20 04:37:54;;;;;;;9.60;4.97;;;;;;;8.17;100.00;100634.94;5205121;28;20529;-78
2022/12/20 04:40:24;;;;;;;9.55;5.13;;;;;;;8.27;100.00;100622.56;5213511;28;20025;-78
2022/12/20 04:42:55;;;;;;;7.95;4.55;;;;;;;8.22;100.00;100616.63;5213299;28;20029;-78
2022/12/20 04:45:25;;;;;;;9.80;4.80;;;;;;;8.31;100.00;100622.44;5203400;28;20100;-78
2022/12/20 04:47:56;;;;;;;8.43;4.20;;;;;;;8.32;100.00;100624.16;5202134;28;20112;-77
2022/12/20 04:50:26;;;;;;;8.27;4.50;;;;;;;8.39;100.00;100610.06;5212929;28;20108;-78
2022/12/20 04:55:45;;;;;;;10.20;4.90;;;;;;;8.46;100.00;100616.84;5213144;28;20043;-79
2022/12/20 04:58:16;;;;;;;8.27;4.47;;;;;;;8.42;100.00;100615.19;5212712;28;20088;-79
2022/12/20 05:00:46;;;;;;;8.52;4.00;;;;;;;8.40;100.00;100629.16;5210118;28;20037;-78
2022/12/20 05:03:21;;;;;;;9.10;4.28;;;;;;;8.40;100.00;100627.41;5206659;28;20040;-78
2022/12/20 05:05:52;;;;;;;9.68;4.38;;;;;;;8.26;100.00;100632.13;5207579;28;20039;-78
2022/12/20 05:08:23;;;;;;;7.93;3.67;;;;;;;8.09;100.00;100631.66;5202377;28;20029;-78
2022/12/20 05:10:53;;;;;;;8.98;4.38;;;;;;;8.08;100.00;100631.69;5213120;28;20032;-79
2022/12/20 05:13:23;;;;;;;7.70;3.90;;;;;;;8.06;100.00;100642.13;5210112;28;20108;-78
2022/12/20 05:15:55;;;;;;;7.95;4.13;;;;;;;7.97;100.00;100647.56;5199069;28;20107;-78
2022/12/20 05:18:26;;;;;;;7.97;4.38;;;;;;;8.07;100.00;100643.84;5210193;28;20044;-78
2022/12/20 05:26:36;;;;;;;11.80;4.40;;;;;;;8.48;100.00;100638.50;5210347;28;20040;-78
2022/12/20 05:29:07;;;;;;;7.57;3.92;;;;;;;8.53;100.00;100639.22;5208594;28;20029;-78
2022/12/20 05:31:37;;;;;;;10.02;4.25;;;;;;;8.61;100.00;100639.88;5204184;28;20033;-77
2022/12/20 05:34:07;;;;;;;11.70;4.55;;;;;;;8.76;100.00;100626.41;5208000;28;20060;-75
2022/12/20 05:36:37;;;;;;;8.18;4.55;;;;;;;8.81;100.00;100621.97;5200574;28;20029;-77
2022/12/20 05:39:10;;;;;;;10.55;4.10;;;;;;;8.75;100.00;100622.09;5208612;28;20106;-77
2022/12/20 05:41:40;;;;;;;9.80;4.68;;;;;;;8.71;100.00;100630.91;5205158;28;20029;-77
2022/12/20 05:44:11;;;;;;;9.85;4.40;;;;;;;8.78;100.00;100635.09;5205271;28;20035;-78
2022/12/20 05:46:41;;;;;;;8.30;4.10;;;;;;;8.76;100.00;100631.63;5214323;28;20115;-77
2022/12/20 05:49:11;;;;;;;8.57;4.90;;;;;;;8.79;100.00;100625.50;5212153;28;20570;-78
2022/12/20 05:51:42;;;;;;;12.32;4.63;;;;;;;8.88;100.00;100620.88;5211164;28;20029;-78
2022/12/20 05:54:12;;;;;;;8.00;3.88;;;;;;;8.87;100.00;100627.00;5202057;28;20024;-78
2022/12/20 05:56:42;;;;;;;9.02;4.78;;;;;;;8.93;100.00;100629.41;5207995;28;20023;-78
2022/12/20 05:59:13;;;;;;;10.80;4.65;;;;;;;8.88;100.00;100630.47;5209854;28;20025;-78
2022/12/20 06:01:44;;;;;;;9.57;4.40;;;;;;;8.88;100.00;100617.44;5211710;28;20091;-78
2022/12/20 06:04:14;;;;;;;12.15;4.72;;;;;;;8.92;100.00;100619.88;5213475;28;20060;-77
2022/12/20 06:06:45;;;;;;;10.15;5.07;;;;;;;8.85;100.00;100610.53;5212453;28;20021;-78
2022/12/20 06:09:15;;;;;;;9.13;5.00;;;;;;;8.76;100.00;100621.22;5210548;28;20749;-78
2022/12/20 06:11:46;;;;;;;9.70;4.93;;;;;;;8.66;100.00;100627.59;5212710;28;20442;-78
2022/12/20 06:14:16;;;;;;;11.13;5.50;;;;;;;8.58;100.00;100626.91;5212714;28;20040;-78
2022/12/20 06:16:47;;;;;;;8.57;5.05;;;;;;;8.58;100.00;100626.91;5216316;28;20025;-78
2022/12/20 06:19:17;;;;;;;11.93;5.07;;;;;;;8.63;100.00;100624.19;5216383;28;20039;-78
2022/12/20 06:21:47;;;;;;;9.73;4.45;;;;;;;8.54;100.00;100622.69;5201173;28;20033;-78
2022/12/20 06:24:18;;;;;;;14.25;6.25;;;;;;;8.54;100.00;100629.66;5205556;28;20127;-77
2022/12/20 06:26:48;;;;;;;11.07;5.50;;;;;;;8.63;100.00;100626.81;5208379;28;20040;-79
2022/12/20 06:29:19;;;;;;;8.85;5.20;;;;;;;8.57;100.00;100620.00;5216827;28;20036;-77
2022/12/20 06:31:50;;;;;;;10.80;4.57;;;;;;;8.61;100.00;100631.19;5206277;28;20035;-79
2022/12/20 06:34:21;;;;;;;8.93;5.10;;;;;;;8.55;100.00;100626.16;5203334;28;20083;-77
2022/12/20 06:36:51;;;;;;;9.57;5.60;;;;;;;8.57;100.00;100638.25;5214593;28;20037;-78
2022/12/20 06:39:21;;;;;;;12.25;5.80;;;;;;;8.59;100.00;100638.22;5214603;28;20371;-78
2022/12/20 06:41:52;;;;;;;8.65;5.40;;;;;;;8.57;100.00;100643.44;5211987;28;20029;-78
2022/12/20 06:44:22;;;;;;;11.48;5.82;;;;;;;8.50;100.00;100639.31;5202922;28;20549;-78
2022/12/20 06:46:52;;;;;;;13.30;6.65;;;;;;;8.42;100.00;100641.25;5208941;28;20026;-78
2022/12/20 06:49:22;;;;;;;9.68;6.25;;;;;;;8.41;100.00;100636.94;5206370;28;20033;-78
2022/12/20 06:51:53;;;;;;;11.88;5.05;;;;;;;8.59;100.00;100640.81;5216770;28;20021;-78
2022/12/20 06:54:23;;;;;;;8.90;5.00;;;;;;;8.54;100.00;100633.13;5208246;28;20434;-77
2022/12/20 06:56:53;;;;;;;10.38;5.10;;;;;;;8.40;100.00;100629.16;5213928;28;20057;-78
2022/12/20 06:59:24;;;;;;;11.15;4.90;;;;;;;8.39;100.00;100625.69;5212474;28;20029;-77
2022/12/20 07:01:54;;;;;;;10.65;4.78;;;;;;;8.37;100.00;100635.31;5210126;28;20079;-76
2022/12/20 07:04:24;;;;;;;10.95;4.82;;;;;;;8.40;100.00;100631.78;5204787;28;20029;-76
2022/12/20 07:06:56;;;;;;;11.25;5.00;;;;;;;8.45;100.00;100638.59;5213446;28;20082;-77
2022/12/20 07:09:26;;;;;;;10.13;5.22;;;;;;;8.38;100.00;100644.81;5211609;28;20041;-77
2022/12/20 07:11:56;;;;;;;10.25;5.15;;;;;;;8.47;100.00;100641.13;5211722;28;20032;-78
2022/12/20 07:14:27;;;;;;;11.23;5.30;;;;;;;8.56;100.00;100622.66;5215156;28;20028;-77
2022/12/20 07:16:57;;;;;;;10.05;5.40;;;;;;;8.59;100.00;100633.00;5207901;28;20035;-78
2022/12/20 07:19:27;;;;;;;19.55;5.97;;;;;;;8.60;100.00;100625.16;5204675;28;20159;-78
2022/12/20 07:21:58;;;;;;;8.20;4.97;;;;;;;8.63;100.00;100630.28;5213846;28;20029;-77
2022/12/20 07:24:28;;;;;;;10.40;5.70;;;;;;;8.59;100.00;100623.41;5217264;28;20044;-78
2022/12/20 07:26:59;;;;;;;9.80;5.43;;;;;;;8.52;100.00;100627.09;5208033;28;20033;-77
2022/12/20 07:29:30;;;;;;;10.90;5.55;;;;;;;8.50;100.00;100618.47;5209910;28;20029;-77
2022/12/20 07:32:01;;;;;;;9.55;5.40;;;;;;;8.44;100.00;100623.84;5210188;28;20384;-78
2022/12/20 07:34:32;;;;;;;9.88;4.70;;;;;;;8.52;100.00;100632.31;5208562;28;20048;-77
2022/12/20 07:37:02;;;;;;;11.25;5.18;;;;;;;8.40;100.00;100631.78;5212698;28;20403;-75
2022/12/20 07:39:33;;;;;;;11.75;5.15;;;;;;;8.33;100.00;100625.88;5216010;28;20032;-77
2022/12/20 07:42:04;;;;;;;8.50;5.13;;;;;;;8.27;100.00;100618.22;5211740;28;20037;-78
2022/12/20 07:44:34;;;;;;;10.80;5.38;;;;;;;8.21;100.00;100625.34;5211435;28;20505;-78
2022/12/20 07:47:04;;;;;;;10.13;5.60;;;;;;;8.18;100.00;100620.22;5218765;28;20071;-77
2022/12/20 07:49:35;;;;;;;11.35;5.57;;;;;;;8.14;100.00;100628.94;5209236;28;20372;-77
2022/12/20 07:52:09;;;;;;;9.82;5.20;;;;;;;8.22;100.00;100622.66;5212057;28;20523;-79
2022/12/20 07:54:50;;;;;;;10.50;5.10;;;;;;;8.33;100.00;100625.00;5214460;28;20108;-77
2022/12/20 07:57:26;;;;;;;11.25;5.13;;;;;;;8.31;100.00;100621.59;5207277;28;20028;-78
2022/12/20 07:59:57;;;;;;;;;;;;;;;8.29;100.00;100621.63;5207910;28;20601;-77
2022/12/20 08:02:35;;;;;;;8.55;4.43;;;;;;;8.36;100.00;100623.19;5208430;28;19913;-78
2022/12/20 08:05:08;;;;;;;9.95;4.50;;;;;;;8.37;100.00;100627.50;5205852;28;20111;-78
2022/12/20 08:07:41;;;;;;;7.43;4.50;;;;;;;8.39;100.00;100623.09;5213540;28;20060;-78
2022/12/20 08:10:14;;;;;;;11.65;5.20;;;;;;;8.34;100.00;100609.34;5214448;28;20017;-77
2022/12/20 08:12:46;;;;;;;12.18;4.70;;;;;;;8.29;100.00;100626.84;5208948;28;20497;-78
2022/12/20 08:15:18;;;;;;;10.27;4.82;;;;;;;8.39;100.00;100641.31;5206356;28;20037;-78
2022/12/20 08:17:49;;;;;;;8.13;4.90;;;;;;;8.40;100.00;100630.00;5202094;28;20095;-77
2022/12/20 08:20:19;;;;;;;9.90;5.05;;;;;;;8.30;100.00;100627.69;5205905;28;20125;-77
2022/12/20 08:22:50;;;;;;;9.98;4.90;;;;;;;8.30;100.00;100625.09;5214887;28;20522;-77
2022/12/20 08:25:20;;;;;;;9.18;4.90;;;;;;;8.20;100.00;100614.06;5210553;28;20049;-78
2022/12/20 08:27:51;;;;;;;11.45;4.93;;;;;;;8.17;100.00;100614.09;5209372;28;20040;-79
2022/12/20 08:30:22;;;;;;;9.25;4.95;;;;;;;8.27;100.00;100604.34;5215052;28;20079;-78
2022/12/20 08:32:52;;;;;;;10.57;6.22;;;;;;;8.33;100.00;100607.66;5210832;28;20021;-78
2022/12/20 08:35:23;;;;;;;8.32;5.00;;;;;;;8.26;100.00;100611.31;5210243;28;20043;-78
2022/12/20 08:37:53;;;;;;;9.00;5.30;;;;;;;8.33;100.00;100605.03;5213188;28;20540;-78
2022/12/20 08:40:23;;;;;;;9.27;4.90;;;;;;;8.49;100.00;100589.84;5212697;28;20025;-77
2022/12/20 08:42:53;;;;;;;10.70;4.32;;;;;;;8.47;100.00;100586.44;5213228;28;20029;-78
2022/12/20 08:45:24;;;;;;;6.97;3.85;;;;;;;8.61;100.00;100579.97;5213209;28;20021;-78
2022/12/20 08:47:54;;;;;;;6.82;3.97;;;;;;;8.57;100.00;100578.31;5203081;28;20078;-78
2022/12/20 08:50:25;;;;;;;9.70;4.55;;;;;;;8.73;100.00;100579.63;5205097;28;20049;-79
2022/12/20 08:52:56;;;;;;;8.00;3.95;;;;;;;8.89;100.00;100582.66;5210250;28;20025;-78
2022/12/20 08:55:26;;;;;;;10.60;4.65;;;;;;;8.88;100.00;100587.00;5210034;28;20083;-77
2022/12/20 08:57:56;;;;;;;8.95;4.70;;;;;;;8.86;100.00;100591.41;5212812;28;20024;-78
2022/12/20 09:00:27;;;;;;;8.45;4.00;;;;;;;8.80;100.00;100591.59;5227266;22;20131;-74
2022/12/20 09:02:57;;;;;;;9.10;4.38;;;;;;;8.93;100.00;100592.94;5203887;28;20033;-74
2022/12/20 09:05:28;;;;;;;8.02;4.13;;;;;;;8.85;100.00;100584.50;5210360;28;20032;-73
2022/12/20 09:07:58;;;;;;;7.45;4.05;;;;;;;8.92;100.00;100585.16;5210182;28;20397;-73
2022/12/20 09:10:28;;;;;;;8.60;3.95;;;;;;;8.84;100.00;100572.38;5211284;28;20059;-75
2022/12/20 09:12:58;;;;;;;6.00;3.33;;;;;;;8.74;100.00;100570.91;5206645;28;20025;-73
2022/12/20 09:15:30;;;;;;;8.40;3.78;;;;;;;8.80;100.00;100562.94;5209549;28;20052;-73
2022/12/20 09:18:01;;;;;;;8.23;3.65;;;;;;;8.63;100.00;100569.50;5203815;28;20495;-74
2022/12/20 09:20:31;;;;;;;6.85;3.47;;;;;;;8.55;100.00;100564.50;5204785;28;20075;-74
2022/12/20 09:23:02;;;;;;;6.82;3.58;;;;;;;8.56;100.00;100565.38;5210762;28;20458;-73
2022/12/20 09:25:32;;;;;;;10.32;3.50;;;;;;;8.59;100.00;100573.09;5209384;28;20041;-74
2022/12/20 09:28:03;;;;;;;7.53;3.78;;;;;;;8.73;100.00;100576.19;5210661;28;20059;-73
2022/12/20 09:30:34;;;;;;;7.38;3.45;;;;;;;8.84;100.00;100558.47;5212147;28;20025;-74
2022/12/20 09:33:04;;;;;;;9.63;3.63;;;;;;;8.86;100.00;100560.13;5213136;28;20394;-73
2022/12/20 09:35:34;;;;;;;4.47;3.05;;;;;;;8.92;100.00;100577.34;5212650;28;20375;-74
2022/12/20 09:38:04;;;;;;;8.45;3.47;;;;;;;8.84;100.00;100571.50;5215045;28;20033;-73
2022/12/20 09:40:37;;;;;;;10.57;4.15;;;;;;;9.00;100.00;100584.06;5211056;28;20302;-73
2022/12/20 09:43:08;;;;;;;18.05;7.15;;;;;;;8.95;100.00;100578.13;5214925;28;20084;-74
2022/12/20 09:45:39;;;;;;;6.55;3.50;;;;;;;9.07;100.00;100580.34;5213342;28;20112;-74
2022/12/20 09:48:20;;;;;;;8.23;4.65;;;;;;;9.16;100.00;100564.47;5207050;28;20101;-73
2022/12/20 09:51:27;;;;;;;10.18;4.32;;;;;;;9.09;100.00;100573.34;5213689;28;20028;-73
2022/12/20 09:54:07;;;;;;;;;;;;;;;9.13;100.00;100559.34;5209351;28;20200;-74
2022/12/20 09:56:56;;;;;;;18.67;11.20;;;;;;;9.22;100.00;100553.84;5212627;28;19912;-72
2022/12/20 09:59:27;;;;;;;7.70;4.40;;;;;;;9.32;100.00;100550.06;5209309;28;20026;-74
2022/12/20 10:01:57;;;;;;;6.93;2.95;;;;;;;9.33;100.00;100541.31;5210647;28;20372;-72
2022/12/20 10:04:30;;;;;;;7.55;2.55;;;;;;;9.41;100.00;100540.19;5214299;28;20621;-72
2022/12/20 10:07:12;;;;;;;4.18;2.20;;;;;;;9.53;100.00;100544.16;5213034;28;20025;-73
2022/12/20 10:09:51;;;;;;;6.18;2.88;;;;;;;9.30;100.00;100541.44;5212897;28;20343;-73
2022/12/20 10:12:39;;;;;;;8.35;3.72;;;;;;;9.35;100.00;100540.34;5208361;28;20028;-73
2022/12/20 10:15:20;;;;;;;5.65;3.03;;;;;;;9.11;100.00;100553.31;5212348;28;20087;-74
2022/12/20 10:18:05;;;;;;;10.75;3.88;;;;;;;9.11;100.00;100535.06;5201942;28;20508;-73
2022/12/20 10:20:46;;;;;;;5.17;2.87;;;;;;;8.95;100.00;100538.16;5210212;28;20059;-75
2022/12/20 10:23:28;;;;;;;6.30;2.70;;;;;;;8.99;100.00;100525.00;5215164;28;20094;-73
2022/12/20 10:25:58;;;;;;;4.93;2.78;;;;;;;9.01;100.00;100515.38;5208652;28;20021;-74
2022/12/20 10:28:32;;;;;;;4.68;2.55;;;;;;;9.02;100.00;100524.91;5214302;28;20033;-73
2022/12/20 10:31:10;;;;;;;6.10;2.85;;;;;;;9.12;100.00;100515.94;5213131;28;20033;-73
2022/12/20 10:33:42;;;;;;;7.53;2.55;;;;;;;9.37;100.00;100516.84;5211517;28;20079;-74
2022/12/20 10:36:18;;;;;;;7.50;3.28;;;;;;;9.53;100.00;100513.72;5206764;28;20068;-75
2022/12/20 10:38:52;;;;;;;5.28;2.47;;;;;;;9.87;100.00;100508.22;5209685;28;20024;-75
2022/12/20 10:41:26;;;;;;;6.20;2.92;;;;;;;9.74;100.00;100506.94;5209412;28;20632;-73
2022/12/20 10:44:17;;;;;;;6.32;2.90;;;;;;;9.81;100.00;100492.78;5213798;28;20021;-74
2022/12/20 10:46:52;;;;;;;5.82;2.30;;;;;;;9.91;100.00;100486.34;5212093;28;20449;-74
2022/12/20 10:49:35;;;;;;;5.03;2.47;;;;;;;9.73;100.00;100484.34;5201114;28;20487;-72
2022/12/20 10:52:05;;;;;;;6.28;3.08;;;;;;;9.67;100.00;100481.94;5206623;28;20120;-75
2022/12/20 10:54:42;;;;;;;7.07;2.70;;;;;;;9.49;100.00;100486.00;5210943;28;20112;-74
2022/12/20 10:57:15;;;;;;;7.13;2.90;;;;;;;9.29;100.00;100488.41;5211587;28;20267;-75
2022/12/20 10:59:52;;;;;;;5.95;3.08;;;;;;;9.27;100.00;100489.34;5212611;28;20029;-73
2022/12/20 11:02:31;;;;;;;5.82;3.13;;;;;;;9.21;100.00;100485.19;5205651;28;20024;-74
2022/12/20 11:05:05;;;;;;;6.55;2.90;;;;;;;9.05;100.00;100480.50;5204420;28;20040;-73
2022/12/20 11:07:37;;;;;;;6.18;3.15;;;;;;;9.15;100.00;100474.13;5212242;28;20025;-73
2022/12/20 11:10:20;;;;;;;7.65;3.47;;;;;;;9.15;100.00;100472.34;5210357;28;20024;-74
2022/12/20 11:12:55;;;;;;;5.80;3.25;;;;;;;9.32;100.00;100466.59;5206944;28;20026;-73
2022/12/20 11:15:31;;;;;;;7.07;3.20;;;;;;;9.39;100.00;100455.06;5212812;28;20040;-75
2022/12/20 11:18:17;;;;;;;9.27;3.00;;;;;;;9.35;100.00;100458.69;5203188;28;20441;-73
2022/12/20 11:21:09;;;;;;;5.97;2.90;;;;;;;9.44;100.00;100466.19;5211399;28;20019;-74
2022/12/20 11:23:45;;;;;;;6.15;3.05;;;;;;;9.46;100.00;100453.97;5211023;28;20498;-72
2022/12/20 11:26:19;;;;;;;5.20;2.85;;;;;;;9.27;100.00;100452.84;5210918;28;20033;-75
2022/12/20 11:29:15;;;;;;;6.70;3.00;;;;;;;9.27;100.00;100455.44;5206301;28;20025;-73
2022/12/20 11:32:00;;;;;;;7.72;4.28;;;;;;;9.22;100.00;100465.19;5205726;28;20026;-74
2022/12/20 11:34:36;;;;;;;7.82;3.05;;;;;;;9.25;100.00;100465.06;5202449;28;20033;-73
2022/12/20 11:37:20;;;;;;;4.40;2.33;;;;;;;9.29;100.00;100458.88;5211708;28;20409;-72
2022/12/20 11:39:53;;;;;;;6.70;2.40;;;;;;;9.33;100.00;100458.72;5206737;28;20281;-72
2022/12/20 11:42:27;;;;;;;7.45;2.65;;;;;;;9.39;100.00;100455.06;5212537;28;20033;-73
2022/12/20 11:45:20;;;;;;;7.18;2.45;;;;;;;9.58;100.00;100443.09;5209802;28;20025;-73
2022/12/20 11:48:09;;;;;;;6.38;3.00;;;;;;;9.67;100.00;100435.00;5200628;28;20021;-72
2022/12/20 11:50:50;;;;;;;5.40;2.50;;;;;;;9.77;100.00;100418.09;5210531;28;20095;-72
2022/12/20 11:53:31;;;;;;;4.68;2.50;;;;;;;9.76;100.00;100432.03;5205993;28;20047;-72
2022/12/20 11:56:14;;;;;;;6.10;2.47;;;;;;;9.72;100.00;100433.06;5210563;28;20512;-74
2022/12/20 11:58:51;;;;;;;7.93;3.10;;;;;;;9.75;100.00;100440.78;5212556;28;20033;-73